sensor_id;sensor_type;location;lat;lon;timestamp;pressure;altitude;pressure_sealevel;temperature;humidity
12182;BME280;6154;51.550;12.138;2023-01-28T00:02:19;101540.09;;;7.57;62.17
12182;BME280;6154;51.550;12.138;2023-01-28T00:04:48;101540.44;;;7.43;62.22
12182;BME280;6154;51.550;12.138;2023-01-28T00:07:16;101545.75;;;7.42;62.18
12182;BME280;6154;51.550;12.138;2023-01-28T00:09:44;101546.97;;;7.27;62.30
12182;BME280;6154;51.550;12.138;2023-01-28T00:12:13;101549.84;;;7.16;62.39
12182;BME280;6154;51.550;12.138;2023-01-28T00:14:43;101547.81;;;7.28;62.25
12182;BME280;6154;51.550;12.138;2023-01-28T00:17:12;101548.97;;;7.16;62.40
12182;BME280;6154;51.550;12.138;2023-01-28T00:19:40;101544.69;;;7.10;62.61
12182;BME280;6154;51.550;12.138;2023-01-28T00:22:08;101545.44;;;7.17;62.38
12182;BME280;6154;51.550;12.138;2023-01-28T00:24:36;101541.66;;;7.29;62.09
12182;BME280;6154;51.550;12.138;2023-01-28T00:27:05;101545.09;;;7.31;62.05
12182;BME280;6154;51.550;12.138;2023-01-28T00:29:35;101545.16;;;7.29;62.07
12182;BME280;6154;51.550;12.138;2023-01-28T00:32:06;101544.19;;;7.33;61.97
12182;BME280;6154;51.550;12.138;2023-01-28T00:34:34;101545.16;;;7.29;61.98
12182;BME280;6154;51.550;12.138;2023-01-28T00:37:05;101545.97;;;7.31;61.88
12182;BME280;6154;51.550;12.138;2023-01-28T00:39:34;101542.59;;;7.26;61.78
12182;BME280;6154;51.550;12.138;2023-01-28T00:42:02;101535.69;;;7.20;61.69
12182;BME280;6154;51.550;12.138;2023-01-28T00:44:30;101547.22;;;7.16;61.62
12182;BME280;6154;51.550;12.138;2023-01-28T00:47:01;101553.47;;;7.12;61.48
12182;BME280;6154;51.550;12.138;2023-01-28T00:49:31;101548.25;;;7.09;61.36
12182;BME280;6154;51.550;12.138;2023-01-28T00:52:00;101545.72;;;7.05;61.26
12182;BME280;6154;51.550;12.138;2023-01-28T00:54:28;101546.72;;;6.99;61.18
12182;BME280;6154;51.550;12.138;2023-01-28T00:56:59;101545.09;;;6.94;61.19
12182;BME280;6154;51.550;12.138;2023-01-28T00:59:27;101553.22;;;6.83;61.33
12182;BME280;6154;51.550;12.138;2023-01-28T01:01:55;101555.91;;;6.80;61.32
12182;BME280;6154;51.550;12.138;2023-01-28T01:04:39;101554.28;;;6.74;61.23
12182;BME280;6154;51.550;12.138;2023-01-28T01:07:21;101556.16;;;6.68;61.16
12182;BME280;6154;51.550;12.138;2023-01-28T01:10:01;101558.03;;;6.61;61.22
12182;BME280;6154;51.550;12.138;2023-01-28T01:12:29;101559.06;;;6.55;61.25
12182;BME280;6154;51.550;12.138;2023-01-28T01:14:57;101564.44;;;6.48;61.36
12182;BME280;6154;51.550;12.138;2023-01-28T01:17:28;101559.34;;;6.40;61.53
12182;BME280;6154;51.550;12.138;2023-01-28T01:19:58;101556.03;;;6.30;61.87
12182;BME280;6154;51.550;12.138;2023-01-28T01:22:26;101563.19;;;6.24;62.07
12182;BME280;6154;51.550;12.138;2023-01-28T01:24:54;101559.16;;;6.04;62.75
12182;BME280;6154;51.550;12.138;2023-01-28T01:27:22;101563.38;;;6.13;62.38
12182;BME280;6154;51.550;12.138;2023-01-28T01:29:51;101557.31;;;6.08;62.27
12182;BME280;6154;51.550;12.138;2023-01-28T01:32:19;101563.62;;;5.98;62.81
12182;BME280;6154;51.550;12.138;2023-01-28T01:34:48;101560.19;;;5.96;62.68
12182;BME280;6154;51.550;12.138;2023-01-28T01:37:17;101573.38;;;5.93;63.01
12182;BME280;6154;51.550;12.138;2023-01-28T01:39:45;101577.59;;;6.01;62.80
12182;BME280;6154;51.550;12.138;2023-01-28T01:42:15;101571.81;;;5.78;63.30
12182;BME280;6154;51.550;12.138;2023-01-28T01:45:01;101578.66;;;5.91;63.24
12182;BME280;6154;51.550;12.138;2023-01-28T01:47:35;101569.03;;;5.92;63.29
12182;BME280;6154;51.550;12.138;2023-01-28T01:50:11;101571.44;;;6.01;63.17
12182;BME280;6154;51.550;12.138;2023-01-28T01:52:43;101570.56;;;6.03;63.06
12182;BME280;6154;51.550;12.138;2023-01-28T01:55:15;101566.31;;;5.95;63.21
12182;BME280;6154;51.550;12.138;2023-01-28T01:57:48;101573.41;;;5.88;63.58
12182;BME280;6154;51.550;12.138;2023-01-28T02:00:18;101576.06;;;5.87;63.72
12182;BME280;6154;51.550;12.138;2023-01-28T02:02:48;101581.50;;;5.76;64.13
12182;BME280;6154;51.550;12.138;2023-01-28T02:05:19;101574.41;;;5.80;64.09
12182;BME280;6154;51.550;12.138;2023-01-28T02:07:52;101575.19;;;5.86;64.03
12182;BME280;6154;51.550;12.138;2023-01-28T02:10:43;101593.59;;;5.86;63.89
12182;BME280;6154;51.550;12.138;2023-01-28T02:13:13;101582.16;;;5.90;63.99
12182;BME280;6154;51.550;12.138;2023-01-28T02:15:43;101591.72;;;5.94;63.72
12182;BME280;6154;51.550;12.138;2023-01-28T02:18:13;101586.16;;;6.11;63.21
12182;BME280;6154;51.550;12.138;2023-01-28T02:23:45;101589.75;;;6.07;63.20
12182;BME280;6154;51.550;12.138;2023-01-28T02:26:25;101588.78;;;6.11;63.23
12182;BME280;6154;51.550;12.138;2023-01-28T02:29:04;101592.47;;;6.01;63.37
12182;BME280;6154;51.550;12.138;2023-01-28T02:31:41;101589.97;;;5.95;63.56
12182;BME280;6154;51.550;12.138;2023-01-28T02:34:17;101585.50;;;6.00;63.27
12182;BME280;6154;51.550;12.138;2023-01-28T02:36:49;101594.28;;;5.97;63.32
12182;BME280;6154;51.550;12.138;2023-01-28T02:39:22;101600.38;;;5.99;63.27
12182;BME280;6154;51.550;12.138;2023-01-28T02:41:56;101591.47;;;6.08;63.01
12182;BME280;6154;51.550;12.138;2023-01-28T02:44:28;101588.81;;;6.10;63.08
12182;BME280;6154;51.550;12.138;2023-01-28T02:46:56;101590.69;;;6.04;63.33
12182;BME280;6154;51.550;12.138;2023-01-28T02:49:45;101587.16;;;6.05;63.32
12182;BME280;6154;51.550;12.138;2023-01-28T02:52:23;101597.00;;;5.94;63.50
12182;BME280;6154;51.550;12.138;2023-01-28T02:55:14;101599.59;;;5.96;63.41
12182;BME280;6154;51.550;12.138;2023-01-28T02:57:52;101600.34;;;6.01;63.28
12182;BME280;6154;51.550;12.138;2023-01-28T03:00:28;101600.47;;;5.95;63.23
12182;BME280;6154;51.550;12.138;2023-01-28T03:03:11;101609.87;;;6.08;62.90
12182;BME280;6154;51.550;12.138;2023-01-28T03:05:44;101600.31;;;6.04;62.87
12182;BME280;6154;51.550;12.138;2023-01-28T03:08:33;101595.94;;;6.04;62.75
12182;BME280;6154;51.550;12.138;2023-01-28T03:11:21;101598.78;;;5.89;62.97
12182;BME280;6154;51.550;12.138;2023-01-28T03:14:08;101603.91;;;5.98;62.88
12182;BME280;6154;51.550;12.138;2023-01-28T03:16:58;101603.00;;;5.99;62.79
12182;BME280;6154;51.550;12.138;2023-01-28T03:19:45;101604.16;;;5.83;63.17
12182;BME280;6154;51.550;12.138;2023-01-28T03:22:35;101608.38;;;5.93;62.94
12182;BME280;6154;51.550;12.138;2023-01-28T03:25:25;101600.28;;;6.05;62.60
12182;BME280;6154;51.550;12.138;2023-01-28T03:28:15;101603.72;;;6.09;62.37
12182;BME280;6154;51.550;12.138;2023-01-28T03:31:05;101610.78;;;6.07;62.36
12182;BME280;6154;51.550;12.138;2023-01-28T03:33:56;101615.00;;;6.16;62.17
12182;BME280;6154;51.550;12.138;2023-01-28T03:36:43;101616.16;;;5.99;62.53
12182;BME280;6154;51.550;12.138;2023-01-28T03:39:24;101619.63;;;6.00;62.46
12182;BME280;6154;51.550;12.138;2023-01-28T03:41:58;101618.59;;;6.12;62.27
12182;BME280;6154;51.550;12.138;2023-01-28T03:44:27;101610.72;;;6.10;62.16
12182;BME280;6154;51.550;12.138;2023-01-28T03:47:13;101610.88;;;6.01;62.21
12182;BME280;6154;51.550;12.138;2023-01-28T03:49:44;101616.13;;;6.02;62.19
12182;BME280;6154;51.550;12.138;2023-01-28T03:52:15;101609.31;;;5.88;62.52
12182;BME280;6154;51.550;12.138;2023-01-28T03:54:44;101612.78;;;5.93;62.53
12182;BME280;6154;51.550;12.138;2023-01-28T03:57:14;101605.84;;;5.86;62.46
12182;BME280;6154;51.550;12.138;2023-01-28T03:59:43;101604.28;;;5.74;62.95
12182;BME280;6154;51.550;12.138;2023-01-28T04:02:12;101610.22;;;5.87;62.85
12182;BME280;6154;51.550;12.138;2023-01-28T04:04:43;101603.16;;;5.90;62.64
12182;BME280;6154;51.550;12.138;2023-01-28T04:07:12;101610.25;;;5.85;62.76
12182;BME280;6154;51.550;12.138;2023-01-28T04:09:43;101615.47;;;5.87;62.93
12182;BME280;6154;51.550;12.138;2023-01-28T04:12:12;101618.12;;;5.85;62.99
12182;BME280;6154;51.550;12.138;2023-01-28T04:14:40;101622.44;;;5.88;62.98
12182;BME280;6154;51.550;12.138;2023-01-28T04:17:09;101619.63;;;6.03;62.50
12182;BME280;6154;51.550;12.138;2023-01-28T04:19:37;101627.41;;;6.08;62.34
12182;BME280;6154;51.550;12.138;2023-01-28T04:22:10;101626.63;;;6.01;62.50
12182;BME280;6154;51.550;12.138;2023-01-28T04:24:38;101626.63;;;6.01;62.35
12182;BME280;6154;51.550;12.138;2023-01-28T04:27:07;101625.66;;;6.07;62.22
12182;BME280;6154;51.550;12.138;2023-01-28T04:29:35;101631.88;;;6.01;62.32
12182;BME280;6154;51.550;12.138;2023-01-28T04:32:05;101634.63;;;5.95;62.59
12182;BME280;6154;51.550;12.138;2023-01-28T04:34:37;101635.47;;;5.97;62.44
12182;BME280;6154;51.550;12.138;2023-01-28T04:37:08;101631.78;;;6.07;62.24
12182;BME280;6154;51.550;12.138;2023-01-28T04:39:38;101635.31;;;6.06;62.16
12182;BME280;6154;51.550;12.138;2023-01-28T04:42:07;101634.47;;;6.04;62.27
12182;BME280;6154;51.550;12.138;2023-01-28T04:44:37;101635.53;;;5.94;62.45
12182;BME280;6154;51.550;12.138;2023-01-28T04:47:06;101636.41;;;5.93;62.46
12182;BME280;6154;51.550;12.138;2023-01-28T04:49:34;101633.75;;;5.94;62.34
12182;BME280;6154;51.550;12.138;2023-01-28T04:52:04;101636.28;;;6.02;62.29
12182;BME280;6154;51.550;12.138;2023-01-28T04:54:33;101631.00;;;6.00;62.33
12182;BME280;6154;51.550;12.138;2023-01-28T04:57:02;101637.91;;;6.08;62.08
12182;BME280;6154;51.550;12.138;2023-01-28T04:59:30;101635.22;;;6.12;61.93
12182;BME280;6154;51.550;12.138;2023-01-28T05:01:59;101639.63;;;6.09;62.03
12182;BME280;6154;51.550;12.138;2023-01-28T05:04:27;101642.22;;;6.13;61.89
12182;BME280;6154;51.550;12.138;2023-01-28T05:06:55;101645.00;;;6.04;62.09
12182;BME280;6154;51.550;12.138;2023-01-28T05:09:24;101645.94;;;5.98;62.15
12182;BME280;6154;51.550;12.138;2023-01-28T05:11:54;101650.16;;;6.09;62.02
12182;BME280;6154;51.550;12.138;2023-01-28T05:14:22;101649.41;;;6.02;62.25
12182;BME280;6154;51.550;12.138;2023-01-28T05:16:50;101654.69;;;5.99;62.21
12182;BME280;6154;51.550;12.138;2023-01-28T05:19:19;101659.00;;;6.04;62.05
12182;BME280;6154;51.550;12.138;2023-01-28T05:21:47;101668.53;;;6.09;61.95
12182;BME280;6154;51.550;12.138;2023-01-28T05:24:16;101660.59;;;6.13;61.83
12182;BME280;6154;51.550;12.138;2023-01-28T05:26:45;101667.63;;;6.11;61.84
12182;BME280;6154;51.550;12.138;2023-01-28T05:29:14;101673.63;;;6.19;61.79
12182;BME280;6154;51.550;12.138;2023-01-28T05:31:42;101674.53;;;6.18;61.76
12182;BME280;6154;51.550;12.138;2023-01-28T05:34:10;101671.88;;;6.18;61.78
12182;BME280;6154;51.550;12.138;2023-01-28T05:36:38;101672.78;;;6.17;61.72
12182;BME280;6154;51.550;12.138;2023-01-28T05:39:08;101677.50;;;5.97;61.87
12182;BME280;6154;51.550;12.138;2023-01-28T05:41:37;101673.84;;;6.05;61.90
12182;BME280;6154;51.550;12.138;2023-01-28T05:44:05;101687.13;;;5.98;61.90
12182;BME280;6154;51.550;12.138;2023-01-28T05:46:35;101678.94;;;6.16;61.71
12182;BME280;6154;51.550;12.138;2023-01-28T05:49:03;101680.78;;;6.10;61.77
12182;BME280;6154;51.550;12.138;2023-01-28T05:51:34;101687.87;;;6.06;61.88
12182;BME280;6154;51.550;12.138;2023-01-28T05:54:02;101687.78;;;6.12;61.72
12182;BME280;6154;51.550;12.138;2023-01-28T05:56:31;101695.75;;;6.06;61.89
12182;BME280;6154;51.550;12.138;2023-01-28T05:59:01;101694.91;;;6.04;61.97
12182;BME280;6154;51.550;12.138;2023-01-28T06:01:29;101679.88;;;6.11;61.77
12182;BME280;6154;51.550;12.138;2023-01-28T06:03:59;101693.84;;;6.16;61.72
12182;BME280;6154;51.550;12.138;2023-01-28T06:06:27;101696.56;;;6.10;61.82
12182;BME280;6154;51.550;12.138;2023-01-28T06:08:55;101690.25;;;6.21;61.62
12182;BME280;6154;51.550;12.138;2023-01-28T06:11:24;101685.97;;;6.16;61.73
12182;BME280;6154;51.550;12.138;2023-01-28T06:13:53;101692.88;;;6.20;61.69
12182;BME280;6154;51.550;12.138;2023-01-28T06:16:21;101694.50;;;6.28;61.59
12182;BME280;6154;51.550;12.138;2023-01-28T06:18:51;101686.66;;;6.25;61.46
12182;BME280;6154;51.550;12.138;2023-01-28T06:21:20;101693.72;;;6.23;61.50
12182;BME280;6154;51.550;12.138;2023-01-28T06:23:49;101694.56;;;6.25;61.42
12182;BME280;6154;51.550;12.138;2023-01-28T06:26:17;101703.44;;;6.18;61.58
12182;BME280;6154;51.550;12.138;2023-01-28T06:28:45;101706.03;;;6.21;61.62
12182;BME280;6154;51.550;12.138;2023-01-28T06:31:13;101706.81;;;6.26;61.46
12182;BME280;6154;51.550;12.138;2023-01-28T06:33:42;101708.44;;;6.33;61.34
12182;BME280;6154;51.550;12.138;2023-01-28T06:36:10;101706.62;;;6.37;61.18
12182;BME280;6154;51.550;12.138;2023-01-28T06:38:39;101707.59;;;6.30;61.31
12182;BME280;6154;51.550;12.138;2023-01-28T06:41:07;101712.06;;;6.26;61.24
12182;BME280;6154;51.550;12.138;2023-01-28T06:43:36;101716.34;;;6.32;61.23
12182;BME280;6154;51.550;12.138;2023-01-28T06:46:04;101714.50;;;6.37;61.14
12182;BME280;6154;51.550;12.138;2023-01-28T06:48:32;101717.16;;;6.36;61.12
12182;BME280;6154;51.550;12.138;2023-01-28T06:51:00;101717.16;;;6.36;61.16
12182;BME280;6154;51.550;12.138;2023-01-28T06:53:28;101718.94;;;6.35;61.26
12182;BME280;6154;51.550;12.138;2023-01-28T06:55:58;101722.38;;;6.39;61.25
12182;BME280;6154;51.550;12.138;2023-01-28T06:58:26;101718.81;;;6.43;61.19
12182;BME280;6154;51.550;12.138;2023-01-28T07:00:54;101725.75;;;6.45;61.09
12182;BME280;6154;51.550;12.138;2023-01-28T07:03:22;101724.87;;;6.46;61.02
12182;BME280;6154;51.550;12.138;2023-01-28T07:05:50;101734.47;;;6.49;61.01
12182;BME280;6154;51.550;12.138;2023-01-28T07:08:18;101730.03;;;6.52;60.93
12182;BME280;6154;51.550;12.138;2023-01-28T07:10:47;101729.19;;;6.49;60.95
12182;BME280;6154;51.550;12.138;2023-01-28T07:13:16;101730.88;;;6.54;60.98
12182;BME280;6154;51.550;12.138;2023-01-28T07:15:44;101731.78;;;6.53;61.00
12182;BME280;6154;51.550;12.138;2023-01-28T07:18:13;101734.41;;;6.53;61.05
12182;BME280;6154;51.550;12.138;2023-01-28T07:20:41;101737.03;;;6.53;61.03
12182;BME280;6154;51.550;12.138;2023-01-28T07:23:09;101735.13;;;6.60;61.00
12182;BME280;6154;51.550;12.138;2023-01-28T07:25:38;101735.19;;;6.57;60.88
12182;BME280;6154;51.550;12.138;2023-01-28T07:28:06;101742.22;;;6.56;60.81
12182;BME280;6154;51.550;12.138;2023-01-28T07:30:35;101745.69;;;6.58;60.80
12182;BME280;6154;51.550;12.138;2023-01-28T07:33:04;101744.75;;;6.62;60.77
12182;BME280;6154;51.550;12.138;2023-01-28T07:35:32;101747.50;;;6.55;60.72
12182;BME280;6154;51.550;12.138;2023-01-28T07:38:01;101745.75;;;6.55;60.74
12182;BME280;6154;51.550;12.138;2023-01-28T07:40:29;101748.31;;;6.58;60.75
12182;BME280;6154;51.550;12.138;2023-01-28T07:42:57;101752.75;;;6.56;60.81
12182;BME280;6154;51.550;12.138;2023-01-28T07:45:35;101756.19;;;6.60;60.75
12182;BME280;6154;51.550;12.138;2023-01-28T07:48:06;101750.91;;;6.60;60.78
12182;BME280;6154;51.550;12.138;2023-01-28T07:50:35;101754.44;;;6.59;60.75
12182;BME280;6154;51.550;12.138;2023-01-28T07:53:05;101764.03;;;6.63;60.71
12182;BME280;6154;51.550;12.138;2023-01-28T07:55:33;101761.25;;;6.71;60.70
12182;BME280;6154;51.550;12.138;2023-01-28T07:58:03;101755.13;;;6.70;60.63
12182;BME280;6154;51.550;12.138;2023-01-28T08:00:34;101752.41;;;6.76;60.60
12182;BME280;6154;51.550;12.138;2023-01-28T08:03:06;101753.16;;;6.81;60.55
12182;BME280;6154;51.550;12.138;2023-01-28T08:05:39;101752.41;;;6.76;60.47
12182;BME280;6154;51.550;12.138;2023-01-28T08:08:10;101751.50;;;6.77;60.57
12182;BME280;6154;51.550;12.138;2023-01-28T08:10:39;101747.03;;;6.82;60.65
12182;BME280;6154;51.550;12.138;2023-01-28T08:13:09;101754.03;;;6.83;60.58
12182;BME280;6154;51.550;12.138;2023-01-28T08:15:38;101755.03;;;6.76;60.76
12182;BME280;6154;51.550;12.138;2023-01-28T08:18:10;101762.03;;;6.77;60.82
12182;BME280;6154;51.550;12.138;2023-01-28T08:20:40;101753.16;;;6.81;60.95
12182;BME280;6154;51.550;12.138;2023-01-28T08:23:11;101750.47;;;6.86;60.89
12182;BME280;6154;51.550;12.138;2023-01-28T08:25:41;101751.19;;;6.94;60.85
12182;BME280;6154;51.550;12.138;2023-01-28T08:28:09;101756.50;;;6.91;60.71
12182;BME280;6154;51.550;12.138;2023-01-28T08:30:38;101756.44;;;6.96;60.77
12182;BME280;6154;51.550;12.138;2023-01-28T08:33:09;101744.94;;;7.00;60.77
12182;BME280;6154;51.550;12.138;2023-01-28T08:35:37;101761.59;;;7.02;60.74
12182;BME280;6154;51.550;12.138;2023-01-28T08:38:06;101759.78;;;7.04;60.62
12182;BME280;6154;51.550;12.138;2023-01-28T08:40:35;101756.19;;;7.08;60.60
12182;BME280;6154;51.550;12.138;2023-01-28T08:43:04;101764.91;;;7.10;60.38
12182;BME280;6154;51.550;12.138;2023-01-28T08:45:32;101765.78;;;7.12;60.32
12182;BME280;6154;51.550;12.138;2023-01-28T08:48:02;101774.44;;;7.17;60.35
12182;BME280;6154;51.550;12.138;2023-01-28T08:50:33;101770.00;;;7.19;60.53
12182;BME280;6154;51.550;12.138;2023-01-28T08:53:04;101775.28;;;7.19;60.48
12182;BME280;6154;51.550;12.138;2023-01-28T08:55:33;101783.06;;;7.25;60.41
12182;BME280;6154;51.550;12.138;2023-01-28T08:58:05;101784.84;;;7.25;60.16
12182;BME280;6154;51.550;12.138;2023-01-28T09:00:58;101780.28;;;7.33;60.11
12182;BME280;6154;51.550;12.138;2023-01-28T09:03:30;101778.50;;;7.35;59.73
12182;BME280;6154;51.550;12.138;2023-01-28T09:06:03;101786.31;;;7.38;59.74
12182;BME280;6154;51.550;12.138;2023-01-28T09:08:32;101793.34;;;7.37;59.63
12182;BME280;6154;51.550;12.138;2023-01-28T09:11:00;101794.16;;;7.41;59.33
12182;BME280;6154;51.550;12.138;2023-01-28T09:13:28;101790.56;;;7.45;59.38
12182;BME280;6154;51.550;12.138;2023-01-28T09:15:56;101794.84;;;7.52;59.37
12182;BME280;6154;51.550;12.138;2023-01-28T09:18:25;101801.94;;;7.47;58.58
12182;BME280;6154;51.550;12.138;2023-01-28T09:20:53;101806.25;;;7.51;58.83
12182;BME280;6154;51.550;12.138;2023-01-28T09:23:23;101806.28;;;7.49;58.46
12182;BME280;6154;51.550;12.138;2023-01-28T09:25:58;101802.72;;;7.50;58.66
12182;BME280;6154;51.550;12.138;2023-01-28T09:28:26;101813.28;;;7.52;58.73
12182;BME280;6154;51.550;12.138;2023-01-28T09:31:00;101806.16;;;7.56;58.74
12182;BME280;6154;51.550;12.138;2023-01-28T09:33:29;101818.50;;;7.54;58.71
12182;BME280;6154;51.550;12.138;2023-01-28T09:35:58;101812.44;;;7.48;58.54
12182;BME280;6154;51.550;12.138;2023-01-28T09:38:29;101820.28;;;7.53;58.91
12182;BME280;6154;51.550;12.138;2023-01-28T09:40:59;101820.53;;;7.39;57.77
12182;BME280;6154;51.550;12.138;2023-01-28T09:43:45;101833.66;;;7.41;57.86
12182;BME280;6154;51.550;12.138;2023-01-28T09:46:17;101823.50;;;7.21;55.83
12182;BME280;6154;51.550;12.138;2023-01-28T09:48:48;101834.22;;;7.10;55.83
12182;BME280;6154;51.550;12.138;2023-01-28T09:51:27;101829.87;;;7.08;56.74
12182;BME280;6154;51.550;12.138;2023-01-28T09:54:03;101845.28;;;7.29;57.46
12182;BME280;6154;51.550;12.138;2023-01-28T09:56:35;101846.06;;;7.36;57.03
12182;BME280;6154;51.550;12.138;2023-01-28T09:59:16;101836.97;;;7.50;57.30
12182;BME280;6154;51.550;12.138;2023-01-28T10:01:51;101842.25;;;7.52;55.85
12182;BME280;6154;51.550;12.138;2023-01-28T10:04:31;101839.44;;;7.60;56.10
12182;BME280;6154;51.550;12.138;2023-01-28T10:07:14;101837.53;;;7.68;56.55
12182;BME280;6154;51.550;12.138;2023-01-28T10:09:52;101840.75;;;7.82;56.05
12182;BME280;6154;51.550;12.138;2023-01-28T10:12:37;101837.03;;;7.92;55.79
12182;BME280;6154;51.550;12.138;2023-01-28T10:15:19;101831.69;;;7.95;54.81
12182;BME280;6154;51.550;12.138;2023-01-28T10:17:52;101836.78;;;8.03;55.63
12182;BME280;6154;51.550;12.138;2023-01-28T10:20:44;101833.87;;;8.15;56.30
12182;BME280;6154;51.550;12.138;2023-01-28T10:23:18;101823.84;;;8.31;56.95
12182;BME280;6154;51.550;12.138;2023-01-28T10:25:50;101825.25;;;8.47;56.37
12182;BME280;6154;51.550;12.138;2023-01-28T10:28:19;101827.75;;;8.53;56.79
12182;BME280;6154;51.550;12.138;2023-01-28T10:30:50;101837.25;;;8.62;56.55
12182;BME280;6154;51.550;12.138;2023-01-28T10:33:21;101831.88;;;8.65;56.20
12182;BME280;6154;51.550;12.138;2023-01-28T10:35:53;101832.69;;;8.67;55.62
12182;BME280;6154;51.550;12.138;2023-01-28T10:38:23;101832.75;;;8.66;54.41
12182;BME280;6154;51.550;12.138;2023-01-28T10:40:57;101830.97;;;8.66;54.81
12182;BME280;6154;51.550;12.138;2023-01-28T10:43:30;101829.19;;;8.67;55.34
12182;BME280;6154;51.550;12.138;2023-01-28T10:46:02;101830.84;;;8.71;55.39
12182;BME280;6154;51.550;12.138;2023-01-28T10:48:33;101831.72;;;8.71;55.29
12182;BME280;6154;51.550;12.138;2023-01-28T10:51:04;101827.28;;;8.73;55.24
12182;BME280;6154;51.550;12.138;2023-01-28T10:53:34;101819.25;;;8.78;55.35
12182;BME280;6154;51.550;12.138;2023-01-28T10:56:06;101817.38;;;8.83;55.84
12182;BME280;6154;51.550;12.138;2023-01-28T10:58:46;101820.81;;;8.85;55.52
12182;BME280;6154;51.550;12.138;2023-01-28T11:01:15;101816.37;;;8.87;54.89
12182;BME280;6154;51.550;12.138;2023-01-28T11:03:52;101821.91;;;8.76;55.05
12182;BME280;6154;51.550;12.138;2023-01-28T11:06:23;101818.50;;;8.73;55.10
12182;BME280;6154;51.550;12.138;2023-01-28T11:08:52;101822.00;;;8.72;55.39
12182;BME280;6154;51.550;12.138;2023-01-28T11:11:25;101816.13;;;8.62;54.61
12182;BME280;6154;51.550;12.138;2023-01-28T11:13:54;101811.16;;;8.48;53.52
12182;BME280;6154;51.550;12.138;2023-01-28T11:16:24;101821.50;;;8.57;55.16
12182;BME280;6154;51.550;12.138;2023-01-28T11:18:56;101824.97;;;8.59;55.22
12182;BME280;6154;51.550;12.138;2023-01-28T11:21:29;101815.31;;;8.58;55.48
12182;BME280;6154;51.550;12.138;2023-01-28T11:24:03;101823.16;;;8.61;54.56
12182;BME280;6154;51.550;12.138;2023-01-28T11:26:45;101819.47;;;8.69;54.59
12182;BME280;6154;51.550;12.138;2023-01-28T11:29:25;101810.59;;;8.73;54.92
12182;BME280;6154;51.550;12.138;2023-01-28T11:31:55;101804.31;;;8.77;53.99
12182;BME280;6154;51.550;12.138;2023-01-28T11:34:25;101810.34;;;8.82;55.36
12182;BME280;6154;51.550;12.138;2023-01-28T11:37:00;101808.53;;;8.84;55.06
12182;BME280;6154;51.550;12.138;2023-01-28T11:39:29;101802.34;;;8.85;54.73
12182;BME280;6154;51.550;12.138;2023-01-28T11:42:15;101801.28;;;8.92;55.15
12182;BME280;6154;51.550;12.138;2023-01-28T11:44:45;101809.22;;;8.90;53.46
12182;BME280;6154;51.550;12.138;2023-01-28T11:47:32;101811.91;;;8.89;53.88
12182;BME280;6154;51.550;12.138;2023-01-28T11:50:25;101802.44;;;8.82;50.47
12182;BME280;6154;51.550;12.138;2023-01-28T11:53:05;101798.94;;;8.80;50.24
12182;BME280;6154;51.550;12.138;2023-01-28T11:55:40;101804.00;;;8.89;51.80
12182;BME280;6154;51.550;12.138;2023-01-28T11:58:22;101812.81;;;8.88;50.90
12182;BME280;6154;51.550;12.138;2023-01-28T12:01:01;101807.84;;;9.10;53.05
12182;BME280;6154;51.550;12.138;2023-01-28T12:03:40;101807.97;;;9.05;52.40
12182;BME280;6154;51.550;12.138;2023-01-28T12:06:33;101803.37;;;9.13;52.77
12182;BME280;6154;51.550;12.138;2023-01-28T12:09:14;101808.94;;;9.03;50.62
12182;BME280;6154;51.550;12.138;2023-01-28T12:11:54;101798.03;;;8.81;51.87
12182;BME280;6154;51.550;12.138;2023-01-28T12:14:56;101799.13;;;8.74;51.94
12182;BME280;6154;51.550;12.138;2023-01-28T12:17:41;101789.25;;;8.82;51.21
12182;BME280;6154;51.550;12.138;2023-01-28T12:20:21;101786.75;;;8.76;51.55
12182;BME280;6154;51.550;12.138;2023-01-28T12:25:59;101779.53;;;8.82;52.00
12182;BME280;6154;51.550;12.138;2023-01-28T12:28:51;101777.09;;;8.75;50.71
12182;BME280;6154;51.550;12.138;2023-01-28T12:37:29;101781.47;;;9.08;50.20
12182;BME280;6154;51.550;12.138;2023-01-28T12:40:15;101788.44;;;9.12;51.76
12182;BME280;6154;51.550;12.138;2023-01-28T12:42:51;101788.50;;;9.09;51.53
12182;BME280;6154;51.550;12.138;2023-01-28T12:45:24;101786.22;;;8.96;50.67
12182;BME280;6154;51.550;12.138;2023-01-28T12:48:00;101786.59;;;8.82;51.95
12182;BME280;6154;51.550;12.138;2023-01-28T12:50:32;101783.78;;;8.88;52.37
12182;BME280;6154;51.550;12.138;2023-01-28T12:53:16;101775.16;;;8.81;52.21
12182;BME280;6154;51.550;12.138;2023-01-28T12:55:49;101787.09;;;8.62;50.72
12182;BME280;6154;51.550;12.138;2023-01-28T12:58:33;101775.63;;;8.63;52.30
12182;BME280;6154;51.550;12.138;2023-01-28T13:01:07;101778.25;;;8.64;52.24
12182;BME280;6154;51.550;12.138;2023-01-28T13:03:41;101779.78;;;8.73;52.72
12182;BME280;6154;51.550;12.138;2023-01-28T13:06:14;101779.59;;;8.79;52.45
12182;BME280;6154;51.550;12.138;2023-01-28T13:08:44;101777.88;;;8.78;52.36
12182;BME280;6154;51.550;12.138;2023-01-28T13:11:14;101794.81;;;8.70;52.00
12182;BME280;6154;51.550;12.138;2023-01-28T13:13:45;101792.34;;;8.63;52.04
12182;BME280;6154;51.550;12.138;2023-01-28T13:16:13;101779.06;;;8.67;52.15
12182;BME280;6154;51.550;12.138;2023-01-28T13:18:45;101778.97;;;8.70;52.38
12182;BME280;6154;51.550;12.138;2023-01-28T13:21:27;101782.47;;;8.70;52.22
12182;BME280;6154;51.550;12.138;2023-01-28T13:24:20;101777.25;;;8.69;52.17
12182;BME280;6154;51.550;12.138;2023-01-28T13:26:50;101771.22;;;8.63;51.51
12182;BME280;6154;51.550;12.138;2023-01-28T13:29:27;101775.06;;;8.50;52.17
12182;BME280;6154;51.550;12.138;2023-01-28T13:31:58;101775.28;;;8.41;51.89
12182;BME280;6154;51.550;12.138;2023-01-28T13:34:32;101779.88;;;8.33;52.02
12182;BME280;6154;51.550;12.138;2023-01-28T13:37:13;101778.19;;;8.29;52.06
12182;BME280;6154;51.550;12.138;2023-01-28T13:39:48;101780.97;;;8.23;52.39
12182;BME280;6154;51.550;12.138;2023-01-28T13:42:23;101781.28;;;8.09;51.00